Terminal Aerodrome Forecast
Issued by NWS Wilmington, OH

Current Version | Previous Version | Graphics & Text | Print | Product List | Glossary On
Versions: 1 2 3 4 5 6 7 8 9 10 11 12 13 14 15 16 17 18 19 20 21 22 23 24 25 26 27 28
601
FTUS41 KILN 230536
TAFCVG
TAF
KCVG 230536Z 2306/2412 19006KT P6SM SCT040
     FM230900 21005KT 6SM BR OVC029
     FM231400 21006KT 6SM BR OVC020
     FM231800 21007KT P6SM BKN035
     FM240000 17003KT P6SM BKN040
     FM240300 16004KT 6SM BR BKN017=

USA.gov is the U.S. government's official web portal to all federal, state and local government web resources and services.